Winfield, Pennsylvania
Current Conditions -  °F | °C
As of 7:53 PM on Wednesday 22 Oct 2014 (Local Time) from KSEG Reporting Station
Overcast Overcast  
Wind Chill: 51°   Ceiling: 2500
Heat Index: 51°   Visibility: 10mi
Dew Point: 43°   Wind: 13mph
Humidity: 74%   Direction: 340°NNW
Pressure: 30.01"   Gusts: 22mph
Location:  40.91°N, 76.86°W
Report Text: KSEG 222353Z AUTO 34011G19KT 10SM OVC025 11/06 A3001 RMK AO2 RAB10E39 SLP163 P0000 60000 T01060061 10128 20106 50000
Loading
Personal Weather Stations






























Interactive Weather Map
Tropical Storm Tracking
New forecast layout! Learn more

10-Day Weather Forecast

Advertisements
Track Severe Weather on mobile